createdAt,value
2018-09-20T00:00:16.577Z,92.33
2018-09-20T00:05:12.943Z,92.61
2018-09-20T00:10:09.110Z,92.33
2018-09-20T00:15:05.256Z,92.43
2018-09-20T00:20:01.448Z,92.04
2018-09-20T00:24:58.269Z,93.00
2018-09-20T00:29:53.760Z,93.63
2018-09-20T00:34:50.542Z,95.07
2018-09-20T00:39:46.229Z,95.65
2018-09-20T00:44:42.142Z,96.03
2018-09-20T00:49:37.990Z,96.08
2018-09-20T00:54:33.894Z,97.24
2018-09-20T00:59:31.174Z,98.00
2018-09-20T01:04:26.735Z,99.58
2018-09-20T01:09:22.560Z,99.68
2018-09-20T01:14:18.695Z,99.78
2018-09-20T01:19:15.458Z,99.99
2018-09-20T01:24:11.565Z,99.99
2018-09-20T01:29:08.553Z,99.99
2018-09-20T01:34:03.934Z,99.99
2018-09-20T01:39:00.094Z,99.99
2018-09-20T01:43:56.076Z,99.99
2018-09-20T01:48:51.941Z,99.99
2018-09-20T01:53:48.662Z,99.99
2018-09-20T01:58:44.328Z,99.99
2018-09-20T02:03:40.398Z,99.99
2018-09-20T02:08:35.956Z,99.99
2018-09-20T02:13:32.973Z,99.99
2018-09-20T02:18:28.934Z,99.99
2018-09-20T02:23:26.011Z,99.99
2018-09-20T02:28:21.427Z,99.83
2018-09-20T02:33:18.838Z,99.99
2018-09-20T02:38:14.547Z,99.99
2018-09-20T02:43:10.271Z,99.99
2018-09-20T02:48:06.281Z,99.99
2018-09-20T02:53:02.865Z,99.99
2018-09-20T02:57:58.283Z,99.99
2018-09-20T03:02:54.497Z,99.99
2018-09-20T03:07:50.311Z,99.99
2018-09-20T03:12:47.705Z,99.99
2018-09-20T03:17:43.422Z,99.99
2018-09-20T03:22:39.286Z,99.99
2018-09-20T03:27:36.099Z,99.99
2018-09-20T03:32:31.834Z,99.99
2018-09-20T03:37:28.617Z,99.99
2018-09-20T03:42:24.292Z,99.99
2018-09-20T03:52:23.317Z,99.99
2018-09-20T03:57:18.861Z,99.99
2018-09-20T04:02:15.044Z,99.99
2018-09-20T04:07:11.250Z,99.99
2018-09-20T04:12:08.193Z,99.99
2018-09-20T04:17:03.822Z,99.99
2018-09-20T04:22:00.126Z,99.99
2018-09-20T04:26:55.883Z,99.99
2018-09-20T04:31:51.736Z,99.99
2018-09-20T04:36:48.687Z,99.99
2018-09-20T04:41:44.161Z,99.99
2018-09-20T04:46:40.049Z,99.99
2018-09-20T04:51:36.007Z,99.99
2018-09-20T04:56:32.135Z,99.99
2018-09-20T05:01:27.856Z,99.99
2018-09-20T05:06:23.548Z,99.99
2018-09-20T05:11:19.399Z,99.99
2018-09-20T05:16:15.369Z,99.99
2018-09-20T05:21:12.431Z,99.99
2018-09-20T05:26:07.865Z,99.99
2018-09-20T05:31:03.859Z,99.99
2018-09-20T05:35:59.818Z,99.99
2018-09-20T05:40:55.896Z,99.99
2018-09-20T05:45:52.791Z,99.99
2018-09-20T05:50:48.596Z,99.99
2018-09-20T05:55:44.388Z,99.99
2018-09-20T06:00:40.365Z,99.99
2018-09-20T06:05:36.571Z,99.99
2018-09-20T06:10:32.576Z,99.99
2018-09-20T06:15:28.444Z,99.99
2018-09-20T06:20:24.494Z,99.99
2018-09-20T06:25:20.483Z,99.99
2018-09-20T06:30:16.585Z,99.99
2018-09-20T06:35:12.586Z,99.99
2018-09-20T06:40:08.641Z,99.99
2018-09-20T06:45:04.955Z,99.99
2018-09-20T06:50:01.025Z,99.99
2018-09-20T06:54:56.959Z,99.99
2018-09-20T06:59:53.013Z,99.99
2018-09-20T07:04:49.075Z,99.99
2018-09-20T07:09:45.389Z,99.99
2018-09-20T07:14:42.469Z,99.99
2018-09-20T07:19:38.406Z,99.21
2018-09-20T07:24:34.160Z,99.35
2018-09-20T07:29:30.152Z,98.77
2018-09-20T07:34:26.521Z,97.76
2018-09-20T07:39:22.599Z,96.89
2018-09-20T07:44:18.920Z,95.40
2018-09-20T07:49:15.230Z,95.12
2018-09-20T07:54:13.041Z,93.14
2018-09-20T07:59:09.111Z,91.55
2018-09-20T08:04:05.281Z,90.68
2018-09-20T08:09:01.380Z,90.39
2018-09-20T08:13:57.608Z,89.72
2018-09-20T08:18:53.906Z,89.81
2018-09-20T08:23:49.968Z,90.20
2018-09-20T08:28:46.073Z,89.53
2018-09-20T08:33:42.263Z,89.72
2018-09-20T08:38:38.491Z,89.09
2018-09-20T08:43:34.527Z,87.93
2018-09-20T08:48:30.555Z,88.31
2018-09-20T08:53:26.558Z,87.93
2018-09-20T08:58:22.543Z,89.62
2018-09-20T09:03:19.484Z,89.72
2018-09-20T09:08:15.185Z,89.18
2018-09-20T09:18:10.939Z,88.02
2018-09-20T09:23:08.146Z,87.59
2018-09-20T09:28:04.974Z,86.24
2018-09-20T09:33:01.635Z,86.47
2018-09-20T09:37:57.922Z,83.19
2018-09-20T09:42:54.334Z,82.17
2018-09-20T09:47:50.387Z,81.49
2018-09-20T09:52:47.573Z,80.43
2018-09-20T09:57:43.747Z,80.18
2018-09-20T10:02:40.421Z,79.80
2018-09-20T10:07:36.797Z,80.18
2018-09-20T10:12:34.240Z,78.96
2018-09-20T10:17:30.103Z,78.38
2018-09-20T10:22:26.285Z,76.59
2018-09-20T10:27:23.497Z,74.46
2018-09-20T10:32:19.485Z,72.75
2018-09-20T10:37:15.705Z,70.82
2018-09-20T10:42:11.981Z,71.78
2018-09-20T10:47:08.066Z,70.72
2018-09-20T10:52:05.085Z,71.20
2018-09-20T10:57:02.046Z,71.30
2018-09-20T11:01:58.140Z,70.66
2018-09-20T11:06:54.353Z,69.21
2018-09-20T11:11:51.650Z,69.40
2018-09-20T11:16:47.996Z,69.69
2018-09-20T11:21:44.147Z,69.66
2018-09-20T11:26:41.128Z,70.72
2018-09-20T11:31:37.219Z,69.98
2018-09-20T11:36:34.179Z,68.82
2018-09-20T11:41:31.158Z,69.11
2018-09-20T11:46:27.372Z,67.88
2018-09-20T11:51:23.806Z,67.21
2018-09-20T11:56:20.365Z,67.30
2018-09-20T12:01:17.437Z,65.30
2018-09-20T12:06:14.915Z,64.07
2018-09-20T12:11:10.204Z,64.43
2018-09-20T12:16:06.381Z,65.95
2018-09-20T12:21:01.665Z,66.43
2018-09-20T12:25:57.128Z,65.66
2018-09-20T12:30:52.530Z,65.47
2018-09-20T12:35:49.140Z,66.50
2018-09-20T12:40:45.800Z,65.66
2018-09-20T12:45:42.633Z,64.69
2018-09-20T12:50:38.281Z,64.50
2018-09-20T12:55:34.287Z,64.98
2018-09-20T13:00:30.462Z,63.14
2018-09-20T13:05:26.697Z,63.34
2018-09-20T13:10:22.832Z,62.07
2018-09-20T13:15:18.698Z,62.07
2018-09-20T13:20:14.580Z,62.85
2018-09-20T13:25:12.323Z,63.24
2018-09-20T13:30:08.116Z,62.66
2018-09-20T13:35:04.603Z,62.07
2018-09-20T13:40:01.830Z,62.07
2018-09-20T13:44:57.876Z,61.98
2018-09-20T13:49:55.598Z,61.33
2018-09-20T13:54:51.592Z,61.30
2018-09-20T13:59:47.676Z,60.72
2018-09-20T14:04:43.566Z,61.21
2018-09-20T14:09:40.577Z,60.52
2018-09-20T14:14:36.186Z,60.52
2018-09-20T14:19:32.045Z,62.37
2018-09-20T14:24:27.804Z,61.30
2018-09-20T14:29:23.739Z,60.14
2018-09-20T14:34:20.867Z,60.24
2018-09-20T14:39:16.890Z,60.52
2018-09-20T14:44:12.795Z,61.46
2018-09-20T14:49:09.734Z,61.85
2018-09-20T14:54:06.499Z,61.49
2018-09-20T14:59:02.361Z,60.04
2018-09-20T15:03:58.624Z,61.01
2018-09-20T15:08:54.878Z,61.30
2018-09-20T15:13:51.784Z,61.40
2018-09-20T15:18:47.408Z,61.11
2018-09-20T15:23:43.249Z,61.11
2018-09-20T15:28:39.552Z,61.01
2018-09-20T15:33:35.509Z,61.30
2018-09-20T15:38:31.675Z,61.11
2018-09-20T15:43:27.912Z,61.36
2018-09-20T15:48:23.909Z,61.27
2018-09-20T15:53:20.247Z,60.21
2018-09-20T15:58:17.314Z,60.50
2018-09-20T16:03:13.049Z,60.59
2018-09-20T16:08:09.083Z,60.82
2018-09-20T16:13:06.147Z,61.18
2018-09-20T16:18:01.895Z,61.66
2018-09-20T16:22:58.346Z,61.56
2018-09-20T16:27:54.284Z,62.14
2018-09-20T16:32:50.558Z,61.66
2018-09-20T16:37:47.147Z,62.63
2018-09-20T16:42:42.992Z,62.53
2018-09-20T16:47:38.825Z,63.56
2018-09-20T16:52:34.616Z,63.66
2018-09-20T16:57:30.431Z,64.31
2018-09-20T17:02:26.309Z,64.79
2018-09-20T17:07:23.383Z,65.75
2018-09-20T17:12:18.932Z,65.56
2018-09-20T17:17:16.116Z,67.11
2018-09-20T17:22:11.777Z,67.27
2018-09-20T17:27:07.622Z,67.08
2018-09-20T17:32:04.717Z,67.62
2018-09-20T17:37:01.735Z,68.88
2018-09-20T17:41:57.253Z,69.56
2018-09-20T17:46:53.210Z,70.29
2018-09-20T17:51:50.329Z,71.16
2018-09-20T17:56:46.357Z,73.48
2018-09-20T18:01:42.079Z,73.44
2018-09-20T18:06:38.093Z,73.63
2018-09-20T18:11:34.032Z,74.69
2018-09-20T18:16:32.225Z,75.05
2018-09-20T18:21:27.362Z,76.50
2018-09-20T18:26:23.193Z,77.17
2018-09-20T18:31:18.804Z,78.03
2018-09-20T18:36:15.171Z,78.23
2018-09-20T18:41:11.154Z,78.09
2018-09-20T18:46:07.117Z,77.51
2018-09-20T18:51:04.875Z,78.09
2018-09-20T18:56:00.955Z,79.16
2018-09-20T19:00:56.797Z,79.44
2018-09-20T19:05:53.074Z,79.93
2018-09-20T19:10:49.164Z,81.81
2018-09-20T19:15:46.121Z,81.72
2018-09-20T19:20:41.633Z,82.20
2018-09-20T19:25:37.558Z,84.03
2018-09-20T19:30:34.426Z,83.26
2018-09-20T19:35:29.753Z,84.86
2018-09-20T19:40:26.109Z,85.63
2018-09-20T19:45:23.289Z,85.24
2018-09-20T19:50:18.782Z,85.53
2018-09-20T19:55:14.586Z,85.82
2018-09-20T20:00:11.408Z,85.53
2018-09-20T20:05:07.319Z,85.87
2018-09-20T20:10:03.216Z,85.58
2018-09-20T20:15:00.099Z,86.35
2018-09-20T20:24:57.137Z,87.12
2018-09-20T20:29:53.626Z,86.83
2018-09-20T20:34:49.543Z,87.41
2018-09-20T20:39:45.388Z,86.07
2018-09-20T20:44:41.212Z,85.58
2018-09-20T20:49:37.996Z,84.91
2018-09-20T20:54:33.663Z,83.95
2018-09-20T20:59:30.499Z,83.66
2018-09-20T21:04:26.975Z,83.18
2018-09-20T21:09:23.769Z,83.47
2018-09-20T21:14:19.298Z,83.08
2018-09-20T21:19:15.143Z,82.89
2018-09-20T21:24:11.154Z,83.37
2018-09-20T21:29:07.053Z,82.79
2018-09-20T21:34:02.956Z,82.98
2018-09-20T21:39:00.047Z,82.60
2018-09-20T21:48:58.878Z,82.37
2018-09-20T21:53:55.028Z,82.94
2018-09-20T21:58:50.906Z,82.37
2018-09-20T22:03:46.947Z,82.56
2018-09-20T22:08:42.560Z,81.40
2018-09-20T22:13:40.129Z,80.92
2018-09-20T22:18:35.636Z,80.35
2018-09-20T22:23:32.537Z,79.00
2018-09-20T22:28:29.759Z,77.31
2018-09-20T22:33:25.373Z,77.40
2018-09-20T22:38:21.399Z,76.92
2018-09-20T22:43:18.327Z,76.06
2018-09-20T22:48:15.452Z,75.86
2018-09-20T22:53:11.027Z,76.18
2018-09-20T22:58:07.202Z,76.34
2018-09-20T23:03:03.168Z,76.48
2018-09-20T23:07:59.075Z,77.11
2018-09-20T23:12:56.231Z,76.53
2018-09-20T23:17:51.818Z,76.28
2018-09-20T23:22:49.142Z,76.73
2018-09-20T23:27:44.792Z,77.31
2018-09-20T23:32:40.640Z,77.40
2018-09-20T23:37:37.446Z,77.50
2018-09-20T23:42:32.994Z,77.88
2018-09-20T23:47:28.896Z,77.50
2018-09-20T23:52:24.973Z,78.08
2018-09-20T23:57:20.630Z,78.17
